createdAt,value
2022-11-19T00:02:18.159Z,34.67
2022-11-19T00:05:06.745Z,30.07
2022-11-19T00:07:56.424Z,31.30
2022-11-19T00:10:45.676Z,29.33
2022-11-19T00:13:33.061Z,29.50
2022-11-19T00:16:21.404Z,28.75
2022-11-19T00:19:11.560Z,27.52
2022-11-19T00:21:59.868Z,24.80
2022-11-19T00:24:49.561Z,26.00
2022-11-19T00:27:37.947Z,21.92
2022-11-19T00:30:47.141Z,23.07
2022-11-19T00:33:35.183Z,26.15
2022-11-19T00:36:24.150Z,25.75
2022-11-19T00:39:12.522Z,25.23
2022-11-19T00:42:02.215Z,22.17
2022-11-19T00:44:50.595Z,23.27
2022-11-19T00:47:38.925Z,22.33
2022-11-19T00:50:27.315Z,23.60
2022-11-19T00:53:15.709Z,23.70
2022-11-19T00:56:06.668Z,23.70
2022-11-19T00:58:57.009Z,19.90
2022-11-19T01:01:45.413Z,14.15
2022-11-19T01:04:33.771Z,18.43
2022-11-19T01:07:22.199Z,21.50
2022-11-19T01:10:11.094Z,18.83
2022-11-19T01:13:16.839Z,21.80
2022-11-19T01:16:09.715Z,23.17
2022-11-19T01:18:59.072Z,21.57
2022-11-19T01:21:47.433Z,23.77
2022-11-19T01:24:35.791Z,20.40
2022-11-19T01:27:24.124Z,21.00
2022-11-19T01:30:13.489Z,19.40
2022-11-19T01:33:03.177Z,19.77
2022-11-19T01:36:02.295Z,25.30
2022-11-19T01:38:51.912Z,24.30
2022-11-19T01:41:40.280Z,21.10
2022-11-19T01:45:02.269Z,25.10
2022-11-19T01:47:50.704Z,22.73
2022-11-19T01:50:45.508Z,21.23
2022-11-19T01:53:35.449Z,19.07
2022-11-19T01:56:24.661Z,21.73
2022-11-19T01:59:20.493Z,22.47
2022-11-19T02:02:09.138Z,24.90
2022-11-19T02:04:58.260Z,22.03
2022-11-19T02:07:54.899Z,24.27
2022-11-19T02:10:51.392Z,22.30
2022-11-19T02:13:44.283Z,24.73
2022-11-19T02:16:39.390Z,23.03
2022-11-19T02:19:52.090Z,21.47
2022-11-19T02:23:06.967Z,22.90
2022-11-19T02:26:17.728Z,24.43
2022-11-19T02:29:16.998Z,28.25
2022-11-19T02:32:14.562Z,23.07
2022-11-19T02:35:18.708Z,22.53
2022-11-19T02:38:16.844Z,22.20
2022-11-19T02:41:27.944Z,21.53
2022-11-19T02:44:54.495Z,24.80
2022-11-19T02:47:50.041Z,23.03
2022-11-19T02:50:42.900Z,26.67
2022-11-19T02:53:32.017Z,26.63
2022-11-19T02:56:48.415Z,27.17
2022-11-19T02:59:58.897Z,28.70
2022-11-19T03:03:10.466Z,16.77
2022-11-19T03:06:01.977Z,28.20
2022-11-19T03:08:50.365Z,22.37
2022-11-19T03:11:38.798Z,26.77
2022-11-19T03:14:52.130Z,23.87
2022-11-19T03:18:03.226Z,26.03
2022-11-19T03:20:56.855Z,20.33
2022-11-19T03:23:50.526Z,23.73
2022-11-19T03:26:43.031Z,25.00
2022-11-19T03:29:35.705Z,22.37
2022-11-19T03:32:28.888Z,22.73
2022-11-19T03:35:23.961Z,22.17
2022-11-19T03:38:18.060Z,23.77
2022-11-19T03:41:08.728Z,22.63
2022-11-19T03:44:01.558Z,17.58
2022-11-19T03:46:54.379Z,25.03
2022-11-19T03:49:45.827Z,23.57
2022-11-19T03:52:35.532Z,21.30
2022-11-19T03:55:32.130Z,22.20
2022-11-19T03:58:20.460Z,21.37
2022-11-19T04:01:09.998Z,23.27
2022-11-19T04:04:15.721Z,22.77
2022-11-19T04:07:04.853Z,25.33
2022-11-19T04:09:54.586Z,29.23
2022-11-19T04:12:42.951Z,25.93
2022-11-19T04:15:31.290Z,23.37
2022-11-19T04:18:19.647Z,20.27
2022-11-19T04:21:08.378Z,20.80
2022-11-19T04:23:56.747Z,25.27
2022-11-19T04:26:46.500Z,23.00
2022-11-19T04:29:34.856Z,22.90
2022-11-19T04:32:23.199Z,20.77
2022-11-19T04:35:12.149Z,21.00
2022-11-19T04:38:00.477Z,23.33
2022-11-19T04:40:48.879Z,19.37
2022-11-19T04:43:38.555Z,23.70
2022-11-19T04:46:26.890Z,21.80
2022-11-19T04:49:15.606Z,22.13
2022-11-19T04:52:03.980Z,20.37
2022-11-19T04:54:52.364Z,19.77
2022-11-19T04:57:40.964Z,18.17
2022-11-19T05:00:30.737Z,20.07
2022-11-19T05:03:19.071Z,23.10
2022-11-19T05:06:07.940Z,19.50
2022-11-19T05:08:56.402Z,19.43
2022-11-19T05:11:44.771Z,19.37
2022-11-19T05:14:33.101Z,22.40
2022-11-19T05:17:23.123Z,18.80
2022-11-19T05:20:11.808Z,21.50
2022-11-19T05:23:00.198Z,17.50
2022-11-19T05:25:48.660Z,19.47
2022-11-19T05:28:39.490Z,19.20
2022-11-19T05:31:28.436Z,19.87
2022-11-19T05:34:18.188Z,24.47
2022-11-19T05:37:06.555Z,21.17
2022-11-19T05:39:54.979Z,20.93
2022-11-19T05:42:43.437Z,19.57
2022-11-19T05:45:31.877Z,19.23
2022-11-19T05:48:20.210Z,21.27
2022-11-19T05:51:13.792Z,18.73
2022-11-19T05:54:02.418Z,19.90
2022-11-19T05:56:50.782Z,20.50
2022-11-19T05:59:43.530Z,21.33
2022-11-19T06:02:32.808Z,22.00
2022-11-19T06:05:21.375Z,20.23
2022-11-19T06:08:11.072Z,22.30
2022-11-19T06:10:59.411Z,18.73
2022-11-19T06:13:47.727Z,22.00
2022-11-19T06:16:36.030Z,18.10
2022-11-19T06:19:25.267Z,21.90
2022-11-19T06:22:13.623Z,20.80
2022-11-19T06:25:03.416Z,22.23
2022-11-19T06:27:53.783Z,18.97
2022-11-19T06:30:42.130Z,17.17
2022-11-19T06:33:30.518Z,19.57
2022-11-19T06:36:19.281Z,19.27
2022-11-19T06:39:07.931Z,19.80
2022-11-19T06:42:18.524Z,20.13
2022-11-19T06:45:09.546Z,15.05
2022-11-19T06:47:57.940Z,16.52
2022-11-19T06:50:46.661Z,21.63
2022-11-19T06:53:35.477Z,18.13
2022-11-19T06:56:23.878Z,16.73
2022-11-19T06:59:13.605Z,18.03
2022-11-19T07:02:02.143Z,19.33
2022-11-19T07:04:50.568Z,21.10
2022-11-19T07:07:38.931Z,25.17
2022-11-19T07:10:27.402Z,20.03
2022-11-19T07:13:15.736Z,20.70
2022-11-19T07:16:05.679Z,17.33
2022-11-19T07:18:54.066Z,19.23
2022-11-19T07:21:42.426Z,19.43
2022-11-19T07:24:30.769Z,18.10
2022-11-19T07:27:19.119Z,19.13
2022-11-19T07:30:08.993Z,27.03
2022-11-19T07:32:58.748Z,22.00
2022-11-19T07:35:47.037Z,21.03
2022-11-19T07:38:37.158Z,18.67
2022-11-19T07:41:43.461Z,31.60
2022-11-19T07:44:31.807Z,25.63
2022-11-19T07:47:20.191Z,21.10
2022-11-19T07:50:10.576Z,19.87
2022-11-19T07:52:59.446Z,15.77
2022-11-19T07:55:47.844Z,16.63
2022-11-19T07:58:36.136Z,20.97
2022-11-19T08:01:25.115Z,31.33
2022-11-19T08:04:13.524Z,26.63
2022-11-19T08:07:04.266Z,26.87
2022-11-19T08:09:52.625Z,19.92
2022-11-19T08:12:40.977Z,19.77
2022-11-19T08:15:29.323Z,20.90
2022-11-19T08:18:17.361Z,22.03
2022-11-19T08:21:06.825Z,18.63
2022-11-19T08:23:56.757Z,18.87
2022-11-19T08:26:45.529Z,17.40
2022-11-19T08:29:33.886Z,22.30
2022-11-19T08:32:22.461Z,20.50
2022-11-19T08:35:11.035Z,20.57
2022-11-19T08:37:59.389Z,21.10
2022-11-19T08:41:13.838Z,24.77
2022-11-19T08:44:01.301Z,24.47
2022-11-19T08:46:50.220Z,21.13
2022-11-19T08:49:38.638Z,22.90
2022-11-19T08:52:26.933Z,22.37
2022-11-19T08:55:15.307Z,21.40
2022-11-19T08:58:06.791Z,19.80
2022-11-19T09:00:56.277Z,22.37
2022-11-19T09:03:45.108Z,19.42
2022-11-19T09:06:35.360Z,22.30
2022-11-19T09:09:23.699Z,18.20
2022-11-19T09:12:12.028Z,18.38
2022-11-19T09:15:01.855Z,17.25
2022-11-19T09:17:50.195Z,23.40
2022-11-19T09:20:38.597Z,21.17
2022-11-19T09:23:28.389Z,19.23
2022-11-19T09:26:18.332Z,20.75
2022-11-19T09:29:06.717Z,21.45
2022-11-19T09:31:56.438Z,23.60
2022-11-19T09:34:44.818Z,27.50
2022-11-19T09:37:34.203Z,21.85
2022-11-19T09:40:24.325Z,21.60
2022-11-19T09:43:23.181Z,20.63
2022-11-19T09:46:18.602Z,19.55
2022-11-19T09:49:13.904Z,21.60
2022-11-19T09:52:11.385Z,21.67
2022-11-19T09:54:59.805Z,21.23
2022-11-19T09:57:52.955Z,18.52
2022-11-19T10:00:41.304Z,21.58
2022-11-19T10:03:33.460Z,22.33
2022-11-19T10:06:29.589Z,21.15
2022-11-19T10:09:31.866Z,21.08
2022-11-19T10:12:34.180Z,19.63
2022-11-19T10:15:28.651Z,18.13
2022-11-19T10:18:28.094Z,18.27
2022-11-19T10:21:23.816Z,14.45
2022-11-19T10:24:18.424Z,12.35
2022-11-19T10:27:16.505Z,14.07
2022-11-19T10:30:13.920Z,15.38
2022-11-19T10:33:05.761Z,14.00
2022-11-19T10:35:59.828Z,13.80
2022-11-19T10:38:56.698Z,13.07
2022-11-19T10:41:50.600Z,13.48
2022-11-19T10:44:42.116Z,11.07
2022-11-19T10:47:35.719Z,10.55
2022-11-19T10:50:26.150Z,11.63
2022-11-19T10:53:19.009Z,13.32
2022-11-19T10:56:14.160Z,13.00
2022-11-19T10:59:12.399Z,12.40
2022-11-19T11:02:04.501Z,16.10
2022-11-19T11:05:06.560Z,13.55
2022-11-19T11:07:57.330Z,12.65
2022-11-19T11:10:47.384Z,10.95
2022-11-19T11:13:58.041Z,13.45
2022-11-19T11:16:49.166Z,12.52
2022-11-19T11:19:37.777Z,12.20
2022-11-19T11:22:27.273Z,14.02
2022-11-19T11:25:21.770Z,12.38
2022-11-19T11:28:15.497Z,11.95
2022-11-19T11:31:06.183Z,9.77
2022-11-19T11:33:58.341Z,11.05
2022-11-19T11:36:46.921Z,16.88
2022-11-19T11:39:37.865Z,15.25
2022-11-19T11:42:28.693Z,13.40
2022-11-19T11:45:31.890Z,11.95
2022-11-19T11:48:22.674Z,12.10
2022-11-19T11:54:18.360Z,13.90
2022-11-19T11:57:18.011Z,15.00
2022-11-19T12:00:32.568Z,12.25
2022-11-19T12:03:21.286Z,11.80
2022-11-19T12:06:16.477Z,11.05
2022-11-19T12:09:14.496Z,11.30
2022-11-19T12:12:09.867Z,14.23
2022-11-19T12:15:05.088Z,13.13
2022-11-19T12:18:05.504Z,12.10
2022-11-19T12:20:58.789Z,12.80
2022-11-19T12:24:03.390Z,10.98
2022-11-19T12:27:01.836Z,10.68
2022-11-19T12:29:58.510Z,10.02
2022-11-19T12:33:09.601Z,12.23
2022-11-19T12:36:07.773Z,11.20
2022-11-19T12:39:03.553Z,11.18
2022-11-19T12:42:23.345Z,9.38
2022-11-19T12:45:18.473Z,13.60
2022-11-19T12:48:32.684Z,11.45
2022-11-19T12:51:33.773Z,13.27
2022-11-19T12:54:41.499Z,13.20
2022-11-19T12:57:41.770Z,13.32
2022-11-19T13:00:32.950Z,11.10
2022-11-19T13:03:35.295Z,13.43
2022-11-19T13:06:33.637Z,13.23
2022-11-19T13:09:36.742Z,11.63
2022-11-19T13:12:33.475Z,13.70
2022-11-19T13:15:26.885Z,15.18
2022-11-19T13:18:18.428Z,13.80
2022-11-19T13:21:16.932Z,12.57
2022-11-19T13:24:13.705Z,13.57
2022-11-19T13:27:05.397Z,14.85
2022-11-19T13:29:59.834Z,16.00
2022-11-19T13:32:58.604Z,11.50
2022-11-19T13:35:51.445Z,10.60
2022-11-19T13:38:47.863Z,11.20
2022-11-19T13:42:01.560Z,11.48
2022-11-19T13:44:55.024Z,11.57
2022-11-19T13:47:46.787Z,12.07
2022-11-19T13:50:41.898Z,11.00
2022-11-19T13:53:35.903Z,11.35
2022-11-19T13:56:39.212Z,11.40
2022-11-19T13:59:32.063Z,10.70
2022-11-19T14:02:52.721Z,8.60
2022-11-19T14:06:22.535Z,12.63
2022-11-19T14:09:23.513Z,8.88
2022-11-19T14:12:42.178Z,14.93
2022-11-19T14:16:04.239Z,9.90
2022-11-19T14:19:12.683Z,10.57
2022-11-19T14:22:18.762Z,10.90
2022-11-19T14:25:27.408Z,9.77
2022-11-19T14:28:42.777Z,9.95
2022-11-19T14:31:31.126Z,10.40
2022-11-19T14:34:28.377Z,10.55
2022-11-19T14:37:21.433Z,9.57
2022-11-19T14:40:18.232Z,12.48
2022-11-19T14:43:43.344Z,10.18
2022-11-19T14:46:33.034Z,9.75
2022-11-19T14:49:27.738Z,12.23
2022-11-19T14:52:22.601Z,9.60
2022-11-19T14:55:22.620Z,11.10
2022-11-19T14:58:22.677Z,10.07
2022-11-19T15:01:20.645Z,9.05
2022-11-19T15:04:14.095Z,10.18
2022-11-19T15:07:03.781Z,9.68
2022-11-19T15:10:08.170Z,12.60
2022-11-19T15:13:31.179Z,9.40
2022-11-19T15:16:22.315Z,10.93
2022-11-19T15:19:35.085Z,9.77
2022-11-19T15:22:45.869Z,12.43
2022-11-19T15:25:45.414Z,18.88
2022-11-19T15:28:46.135Z,13.70
2022-11-19T15:32:00.695Z,12.60
2022-11-19T15:35:11.525Z,11.82
2022-11-19T15:38:05.332Z,10.60
2022-11-19T15:40:57.979Z,12.75
2022-11-19T15:43:51.812Z,10.48
2022-11-19T15:46:45.748Z,11.65
2022-11-19T15:49:37.196Z,11.73
2022-11-19T15:52:30.692Z,14.27
2022-11-19T15:55:21.198Z,13.20
2022-11-19T15:58:17.095Z,12.77
2022-11-19T16:01:06.294Z,9.98
2022-11-19T16:03:55.454Z,14.95
2022-11-19T16:06:45.725Z,11.98
2022-11-19T16:09:36.671Z,11.87
2022-11-19T16:12:45.047Z,12.27
2022-11-19T16:16:05.191Z,12.35
2022-11-19T16:18:53.770Z,11.98
2022-11-19T16:21:43.552Z,12.57
2022-11-19T16:24:50.511Z,12.80
2022-11-19T16:27:41.709Z,13.68
2022-11-19T16:30:38.888Z,10.70
2022-11-19T16:33:29.431Z,12.68
2022-11-19T16:36:19.478Z,11.93
2022-11-19T16:39:11.980Z,13.07
2022-11-19T16:42:17.956Z,13.82
2022-11-19T16:45:15.691Z,13.63
2022-11-19T16:48:04.044Z,11.95
2022-11-19T16:50:52.566Z,12.45
2022-11-19T16:53:49.136Z,13.68
2022-11-19T16:56:44.186Z,12.10
2022-11-19T16:59:34.961Z,12.20
2022-11-19T17:02:29.371Z,10.20
2022-11-19T17:05:20.616Z,12.95
2022-11-19T17:11:35.026Z,12.45
2022-11-19T17:14:41.642Z,10.63
2022-11-19T17:17:41.348Z,11.93
2022-11-19T17:20:55.845Z,12.90
2022-11-19T17:23:49.873Z,11.00
2022-11-19T17:26:39.488Z,13.95
2022-11-19T17:29:28.228Z,18.50
2022-11-19T17:32:16.626Z,14.93
2022-11-19T17:35:09.575Z,16.10
2022-11-19T17:37:59.763Z,14.32
2022-11-19T17:40:49.612Z,14.00
2022-11-19T17:43:57.693Z,15.57
2022-11-19T17:46:46.116Z,13.73
2022-11-19T17:49:34.458Z,14.50
2022-11-19T17:52:26.414Z,12.35
2022-11-19T17:55:20.554Z,16.02
2022-11-19T17:58:09.058Z,12.55
2022-11-19T18:00:57.450Z,16.88
2022-11-19T18:03:46.136Z,13.75
2022-11-19T18:06:34.439Z,13.40
2022-11-19T18:09:24.335Z,12.57
2022-11-19T18:12:16.418Z,17.50
2022-11-19T18:15:05.265Z,14.27
2022-11-19T18:17:54.360Z,14.60
2022-11-19T18:20:42.800Z,14.15
2022-11-19T18:23:31.081Z,15.00
2022-11-19T18:26:23.334Z,14.55
2022-11-19T18:29:11.864Z,14.68
2022-11-19T18:32:01.231Z,14.45
2022-11-19T18:34:49.538Z,16.65
2022-11-19T18:37:37.901Z,14.85
2022-11-19T18:40:26.217Z,17.17
2022-11-19T18:43:37.530Z,15.55
2022-11-19T18:46:28.407Z,15.45
2022-11-19T18:49:16.772Z,12.20
2022-11-19T18:52:07.131Z,12.95
2022-11-19T18:54:55.664Z,13.10
2022-11-19T18:57:43.991Z,13.02
2022-11-19T19:00:33.972Z,14.88
2022-11-19T19:03:22.452Z,13.57
2022-11-19T19:06:11.182Z,13.98
2022-11-19T19:08:59.960Z,14.27
2022-11-19T19:12:11.410Z,14.57
2022-11-19T19:15:01.575Z,12.02
2022-11-19T19:17:51.318Z,14.65
2022-11-19T19:20:39.631Z,12.63
2022-11-19T19:23:28.064Z,13.27
2022-11-19T19:26:18.510Z,15.40
2022-11-19T19:29:06.984Z,17.95
2022-11-19T19:31:55.326Z,17.15
2022-11-19T19:34:45.028Z,16.58
2022-11-19T19:37:33.379Z,14.73
2022-11-19T19:40:21.696Z,15.02
2022-11-19T19:43:10.098Z,14.13
2022-11-19T19:46:04.931Z,12.25
2022-11-19T19:48:56.072Z,12.82
2022-11-19T19:51:46.041Z,13.77
2022-11-19T19:54:34.376Z,15.07
2022-11-19T19:57:22.655Z,12.35
2022-11-19T20:00:12.850Z,14.65
2022-11-19T20:03:01.185Z,15.13
2022-11-19T20:05:50.519Z,18.95
2022-11-19T20:08:40.803Z,15.25
2022-11-19T20:11:29.158Z,18.75
2022-11-19T20:14:17.558Z,16.05
2022-11-19T20:17:06.070Z,16.17
2022-11-19T20:19:54.372Z,17.83
2022-11-19T20:22:42.806Z,14.80
2022-11-19T20:25:33.436Z,20.23
2022-11-19T20:28:21.808Z,13.65
2022-11-19T20:31:13.057Z,13.35
2022-11-19T20:34:03.843Z,16.63
2022-11-19T20:36:52.161Z,15.73
2022-11-19T20:39:40.457Z,15.93
2022-11-19T20:42:52.945Z,13.10
2022-11-19T20:45:41.254Z,15.40
2022-11-19T20:48:29.690Z,14.50
2022-11-19T20:51:19.912Z,13.93
2022-11-19T20:54:09.043Z,10.65
2022-11-19T20:56:58.242Z,19.73
2022-11-19T20:59:47.925Z,14.82
2022-11-19T21:02:36.374Z,21.55
2022-11-19T21:05:24.775Z,33.08
2022-11-19T21:08:13.912Z,38.35
2022-11-19T21:11:04.864Z,33.03
2022-11-19T21:13:53.533Z,23.40
2022-11-19T21:16:43.209Z,24.02
2022-11-19T21:19:31.554Z,26.60
2022-11-19T21:22:19.860Z,32.45
2022-11-19T21:25:12.478Z,33.92
2022-11-19T21:28:01.097Z,34.00
2022-11-19T21:30:52.441Z,24.27
2022-11-19T21:36:30.462Z,20.48
2022-11-19T21:39:19.909Z,15.95
2022-11-19T21:42:08.591Z,13.90
2022-11-19T21:44:57.288Z,15.93
2022-11-19T21:47:45.579Z,14.93
2022-11-19T21:50:35.853Z,14.80
2022-11-19T21:53:24.148Z,15.40
2022-11-19T21:56:12.533Z,14.70
2022-11-19T21:59:00.842Z,17.80
2022-11-19T22:01:54.376Z,16.17
2022-11-19T22:04:43.122Z,15.38
2022-11-19T22:07:32.861Z,16.90
2022-11-19T22:10:21.702Z,17.77
2022-11-19T22:13:10.030Z,21.25
2022-11-19T22:16:00.970Z,15.52
2022-11-19T22:18:49.356Z,18.17
2022-11-19T22:21:37.735Z,18.83
2022-11-19T22:24:27.437Z,15.88
2022-11-19T22:27:15.807Z,16.38
2022-11-19T22:30:06.090Z,16.75
2022-11-19T22:32:54.962Z,16.73
2022-11-19T22:35:43.297Z,15.68
2022-11-19T22:38:31.706Z,16.35
2022-11-19T22:41:22.710Z,18.23
2022-11-19T22:44:11.083Z,18.48
2022-11-19T22:47:00.909Z,16.20
2022-11-19T22:49:49.228Z,17.15
2022-11-19T22:52:37.536Z,18.90
2022-11-19T22:55:25.870Z,15.68
2022-11-19T22:58:15.539Z,18.85
2022-11-19T23:01:04.133Z,17.60
2022-11-19T23:03:53.613Z,18.48
2022-11-19T23:06:42.197Z,19.15
2022-11-19T23:09:30.491Z,19.27
2022-11-19T23:12:36.520Z,19.40
2022-11-19T23:15:26.389Z,20.08
2022-11-19T23:18:14.709Z,20.02
2022-11-19T23:21:05.120Z,23.13
2022-11-19T23:23:53.852Z,18.15
2022-11-19T23:26:42.406Z,23.88
2022-11-19T23:29:30.728Z,16.58
2022-11-19T23:32:20.444Z,20.25
2022-11-19T23:35:09.463Z,21.00
2022-11-19T23:37:57.761Z,21.65
2022-11-19T23:40:46.146Z,22.00
2022-11-19T23:43:35.003Z,28.02
2022-11-19T23:46:25.440Z,24.80
2022-11-19T23:49:15.131Z,26.70
2022-11-19T23:52:03.417Z,28.38
2022-11-19T23:54:51.767Z,23.48
2022-11-19T23:57:40.102Z,26.73
